Pagina principale
METAR-TAF:

METAR-TAF

Aeroporti :

Barrancabermeja, Colombia

latitudine: 07-01N, longitudine: 073-48W, altezza: 126 m

Osservazione

Il bollettino è stato emesso 1 ora e 17 minuti fa, alle 01:00 UTC
Vento 2 kt da direzioni variabili
Temperature 28°C
Umidità 84%
Pressione 1009 hPa
Visibilità 10 km o più
Nubi sparse ad un'altezza di 2000 ft

METAR: SKEJ 210100Z VRB02KT 9999 SCT020 28/25 Q1009

Ora: 21:17 (02:17 UTC)


TAF: mancante

Osservazioni e previsioni meteorologiche di più di 4000 aeroporti (messaggi METAR e TAF).

Le stazioni disponibili sono rappresentate dai dischi gialli e rossi sulla carta.

Puntare il mouse per vedere il nome della stazione.

Clicca sopra per visualizzare le osservazioni e previsioni meteorologiche.

Per cambiare la mappa : fare clic sui pulsanti verdi con una croce nera per ingrandire, il pulsante verde con un trattino per diminuire, o sulla freccia verde per le mappe adiacenti.


METAR-TAF: